Forside
METAR-TAF:

METAR-TAF

Lufthavne :

Benson, England

Breddekreds: 51-37N, længdekreds: 001-05W, højde: 63 m

Aktuelle vejr

Denne rapport blev lavet for 31 minutter siden, kl. 17:20 UTC
Vind 15 kt fra vestsydvest
Temperatur 8°C
Fugtighed 76%
Tryk 1012 hPa
Sigt 10 km eller mere
Nogle få skyer i en højde af 2800 ft
Brudte skyer i en højde af 18000 ft

METAR: EGUB 171720Z 24015KT 9999 FEW028 BKN180 08/04 Q1012 NOSIG RMK BLU BLU

Tid: 17:51 (17:51 UTC)

Vejrudsigter

Denne rapport blev lavet for 4 timer og 13 minutter siden, kl. 13:38 UTC
Foreløbig gælder fra 17 på 15 UTC til 17 på 20 UTC
Vind 14 kt fra vestsydvest
Sigt 10 km eller mere
Nogle få skyer i en højde af 2200 ft
Midlertidig
fra 17 på 15 UTC til 17 på 20 UTC
Vind 18 kt fra vestsydvest med vindstød på up til 28 kt
Sandsynlighed 30% :
Midlertidig
fra 17 på 15 UTC til 17 på 18 UTC
Sigt: 6000 m
Spredte skyer i en højde af 2200 ft, Optårnet Cumulus.
regnbyger

TAF: EGUB 171338Z 1715/1720 24014KT 9999 FEW022 TEMPO 1715/1720 25018G28KT PROB30 TEMPO 1715/1718 6000 SHRA SCT022TCU

Vejrobservationer og prognoser fra mere end 4000 lufthavne (METAR og TAF).

De gule og røde prikker repræsenterer de meteorologiske stationer.

Flyt musen over at se navnet på stationen.

Så klik over at se vejr observationer og prognoser.

At skifte det kort: Klik på de grønne knapper med et sort kors for at zoome ind; på den grønne knap med en bindestreg for at zoome ud; eller på de grønne pile for tilstødende kort.


METAR-TAF: